createdAt,value
2022-10-09T00:01:11.100Z,98424.34
2022-10-09T00:03:39.660Z,98423.63
2022-10-09T00:06:08.023Z,98425.84
2022-10-09T00:08:35.976Z,98423.25
2022-10-09T00:11:11.422Z,98418.47
2022-10-09T00:13:38.887Z,98432.22
2022-10-09T00:16:09.014Z,98425.66
2022-10-09T00:18:36.513Z,98427.81
2022-10-09T00:21:04.683Z,98430.81
2022-10-09T00:23:31.249Z,98428.28
2022-10-09T00:26:00.823Z,98424.41
2022-10-09T00:28:30.148Z,98427.53
2022-10-09T00:30:57.547Z,98431.00
2022-10-09T00:33:24.425Z,98442.03
2022-10-09T00:35:51.500Z,98429.31
2022-10-09T00:38:18.264Z,98429.69
2022-10-09T00:40:44.828Z,98428.59
2022-10-09T00:43:17.800Z,98435.19
2022-10-09T00:45:50.156Z,98429.34
2022-10-09T00:48:16.938Z,98431.00
2022-10-09T00:50:49.534Z,98419.31
2022-10-09T00:53:20.220Z,98439.09
2022-10-09T00:55:47.029Z,98443.66
2022-10-09T00:58:14.466Z,98433.78
2022-10-09T01:00:41.774Z,98425.06
2022-10-09T01:03:08.498Z,98430.34
2022-10-09T01:05:56.589Z,98420.88
2022-10-09T01:08:33.721Z,98416.72
2022-10-09T01:11:20.510Z,98428.22
2022-10-09T01:13:56.854Z,98419.09
2022-10-09T01:16:28.658Z,98417.47
2022-10-09T01:19:06.185Z,98422.59
2022-10-09T01:21:43.674Z,98415.63
2022-10-09T01:24:37.823Z,98416.75
2022-10-09T01:27:32.726Z,98423.34
2022-10-09T01:30:06.362Z,98424.09
2022-10-09T01:32:37.196Z,98429.22
2022-10-09T01:35:06.302Z,98423.75
2022-10-09T01:37:35.230Z,98423.03
2022-10-09T01:40:03.101Z,98432.16
2022-10-09T01:42:30.189Z,98432.88
2022-10-09T01:44:56.796Z,98439.09
2022-10-09T01:47:24.069Z,98434.91
2022-10-09T01:50:10.988Z,98435.47
2022-10-09T01:53:10.364Z,98433.09
2022-10-09T01:56:11.650Z,98431.28
2022-10-09T01:58:48.414Z,98434.00
2022-10-09T02:01:28.678Z,98434.22
2022-10-09T02:03:58.827Z,98437.84
2022-10-09T02:06:27.835Z,98431.97
2022-10-09T02:08:55.558Z,98428.75
2022-10-09T02:11:25.808Z,98431.84
2022-10-09T02:13:53.653Z,98432.22
2022-10-09T02:16:39.037Z,98427.44
2022-10-09T02:19:23.507Z,98429.81
2022-10-09T02:21:57.178Z,98428.16
2022-10-09T02:24:25.757Z,98428.69
2022-10-09T02:26:54.806Z,98429.06
2022-10-09T02:29:21.951Z,98423.78
2022-10-09T02:31:48.489Z,98428.16
2022-10-09T02:34:19.521Z,98429.97
2022-10-09T02:36:46.933Z,98435.84
2022-10-09T02:39:14.271Z,98434.91
2022-10-09T02:41:41.044Z,98443.50
2022-10-09T02:44:07.666Z,98439.88
2022-10-09T02:46:34.409Z,98433.81
2022-10-09T02:49:01.213Z,98436.41
2022-10-09T02:51:27.802Z,98440.97
2022-10-09T02:53:55.102Z,98437.84
2022-10-09T02:56:23.234Z,98435.84
2022-10-09T02:58:50.219Z,98434.75
2022-10-09T03:01:17.399Z,98433.63
2022-10-09T03:03:45.150Z,98431.81
2022-10-09T03:06:15.082Z,98431.81
2022-10-09T03:08:44.414Z,98428.16
2022-10-09T03:11:11.998Z,98439.47
2022-10-09T03:13:39.816Z,98430.88
2022-10-09T03:16:10.845Z,98431.44
2022-10-09T03:18:38.238Z,98429.44
2022-10-09T03:21:22.456Z,98431.59
2022-10-09T03:23:50.459Z,98434.72
2022-10-09T03:26:19.813Z,98431.97
2022-10-09T03:28:48.384Z,98431.81
2022-10-09T03:31:39.367Z,98439.81
2022-10-09T03:34:03.182Z,98440.00
2022-10-09T03:36:29.844Z,98430.66
2022-10-09T03:38:56.589Z,98437.22
2022-10-09T03:41:23.135Z,98441.44
2022-10-09T03:43:49.718Z,98440.34
2022-10-09T03:46:16.574Z,98440.16
2022-10-09T03:48:43.233Z,98445.47
2022-10-09T03:51:09.817Z,98454.41
2022-10-09T03:53:36.399Z,98457.13
2022-10-09T03:56:03.176Z,98464.22
2022-10-09T03:58:29.927Z,98450.94
2022-10-09T04:00:56.840Z,98457.88
2022-10-09T04:03:24.056Z,98456.06
2022-10-09T04:05:50.654Z,98459.31
2022-10-09T04:08:17.182Z,98459.16
2022-10-09T04:10:44.902Z,98456.78
2022-10-09T04:13:11.956Z,98456.56
2022-10-09T04:15:38.820Z,98457.66
2022-10-09T04:18:05.991Z,98462.41
2022-10-09T04:20:32.775Z,98464.22
2022-10-09T04:22:59.484Z,98465.47
2022-10-09T04:25:26.062Z,98465.09
2022-10-09T04:27:52.808Z,98465.59
2022-10-09T04:30:19.330Z,98463.03
2022-10-09T04:32:48.200Z,98461.03
2022-10-09T04:35:16.858Z,98460.66
2022-10-09T04:37:43.747Z,98459.50
2022-10-09T04:40:10.589Z,98454.41
2022-10-09T04:42:37.289Z,98459.44
2022-10-09T04:45:04.694Z,98459.28
2022-10-09T04:47:31.638Z,98455.22
2022-10-09T04:49:58.192Z,98457.03
2022-10-09T04:52:25.246Z,98457.50
2022-10-09T04:54:51.783Z,98458.97
2022-10-09T04:57:18.505Z,98456.75
2022-10-09T04:59:45.394Z,98456.41
2022-10-09T05:02:12.103Z,98458.75
2022-10-09T05:04:38.922Z,98456.56
2022-10-09T05:07:05.488Z,98457.69
2022-10-09T05:09:32.088Z,98462.50
2022-10-09T05:11:58.864Z,98456.28
2022-10-09T05:14:25.438Z,98466.69
2022-10-09T05:17:12.373Z,98461.63
2022-10-09T05:19:39.414Z,98466.19
2022-10-09T05:22:06.090Z,98465.13
2022-10-09T05:24:32.717Z,98466.19
2022-10-09T05:26:59.497Z,98467.13
2022-10-09T05:29:26.056Z,98469.66
2022-10-09T05:31:52.645Z,98467.31
2022-10-09T05:34:19.539Z,98464.56
2022-10-09T05:36:46.188Z,98471.88
2022-10-09T05:39:12.895Z,98468.38
2022-10-09T05:41:39.447Z,98471.31
2022-10-09T05:44:06.082Z,98472.97
2022-10-09T05:46:32.921Z,98483.03
2022-10-09T05:49:01.890Z,98482.88
2022-10-09T05:51:34.066Z,98482.91
2022-10-09T05:54:03.882Z,98483.09
2022-10-09T05:56:32.789Z,98483.66
2022-10-09T05:59:05.116Z,98481.28
2022-10-09T06:01:51.682Z,98485.47
2022-10-09T06:04:23.829Z,98475.44
2022-10-09T06:06:50.895Z,98484.69
2022-10-09T06:09:22.076Z,98481.75
2022-10-09T06:11:50.834Z,98485.13
2022-10-09T06:14:17.771Z,98488.66
2022-10-09T06:16:45.767Z,98489.22
2022-10-09T06:19:14.178Z,98491.84
2022-10-09T06:21:40.812Z,98487.72
2022-10-09T06:24:08.030Z,98481.34
2022-10-09T06:26:37.619Z,98495.78
2022-10-09T06:29:04.182Z,98490.84
2022-10-09T06:31:33.066Z,98488.84
2022-10-09T06:34:01.563Z,98495.09
2022-10-09T06:36:30.796Z,98497.47
2022-10-09T06:38:59.872Z,98500.69
2022-10-09T06:41:28.334Z,98499.19
2022-10-09T06:44:00.349Z,98501.75
2022-10-09T06:46:33.582Z,98499.84
2022-10-09T06:49:01.516Z,98504.75
2022-10-09T06:51:28.909Z,98510.41
2022-10-09T06:53:57.662Z,98508.94
2022-10-09T06:56:25.710Z,98513.84
2022-10-09T06:58:52.353Z,98519.84
2022-10-09T07:01:24.005Z,98513.78
2022-10-09T07:03:56.557Z,98514.00
2022-10-09T07:06:27.388Z,98507.41
2022-10-09T07:08:57.456Z,98510.88
2022-10-09T07:11:29.387Z,98508.91
2022-10-09T07:14:00.671Z,98513.84
2022-10-09T07:16:30.402Z,98515.09
2022-10-09T07:18:58.126Z,98520.22
2022-10-09T07:21:24.790Z,98518.59
2022-10-09T07:23:51.446Z,98525.22
2022-10-09T07:26:23.762Z,98521.91
2022-10-09T07:28:51.181Z,98515.88
2022-10-09T07:31:18.069Z,98523.22
2022-10-09T07:33:48.220Z,98515.03
2022-10-09T07:36:14.902Z,98514.69
2022-10-09T07:38:41.553Z,98516.00
2022-10-09T07:41:10.474Z,98505.97
2022-10-09T07:43:38.720Z,98510.56
2022-10-09T07:46:07.066Z,98499.84
2022-10-09T07:48:35.474Z,98506.09
2022-10-09T07:51:29.319Z,98499.91
2022-10-09T07:53:57.329Z,98502.66
2022-10-09T07:56:26.530Z,98507.44
2022-10-09T07:58:58.836Z,98507.06
2022-10-09T08:01:29.739Z,98506.53
2022-10-09T08:03:58.562Z,98495.00
2022-10-09T08:06:25.747Z,98495.59
2022-10-09T08:08:53.706Z,98493.19
2022-10-09T08:11:21.522Z,98492.28
2022-10-09T08:13:49.977Z,98501.59
2022-10-09T08:16:18.183Z,98493.91
2022-10-09T08:18:45.321Z,98496.63
2022-10-09T08:21:15.989Z,98492.06
2022-10-09T08:23:43.199Z,98482.16
2022-10-09T08:26:18.408Z,98493.31
2022-10-09T08:28:49.723Z,98494.59
2022-10-09T08:31:17.769Z,98489.31
2022-10-09T08:33:44.481Z,98494.25
2022-10-09T08:36:14.402Z,98488.94
2022-10-09T08:38:48.664Z,98487.31
2022-10-09T08:41:49.072Z,98489.31
2022-10-09T08:44:22.684Z,98491.88
2022-10-09T08:47:00.799Z,98489.66
2022-10-09T08:49:40.513Z,98484.66
2022-10-09T08:52:15.910Z,98473.66
2022-10-09T08:54:43.189Z,98485.97
2022-10-09T08:57:17.593Z,98482.03
2022-10-09T08:59:44.805Z,98484.53
2022-10-09T09:02:58.001Z,98486.19
2022-10-09T09:05:36.776Z,98493.41
2022-10-09T09:08:32.766Z,98495.94
2022-10-09T09:11:21.483Z,98490.59
2022-10-09T09:14:53.363Z,98493.25
2022-10-09T09:17:28.576Z,98497.53
2022-10-09T09:20:05.008Z,98495.72
2022-10-09T09:22:33.879Z,98488.75
2022-10-09T09:25:01.225Z,98486.75
2022-10-09T09:27:32.479Z,98483.44
2022-10-09T09:30:24.799Z,98466.22
2022-10-09T09:33:09.074Z,98475.97
2022-10-09T09:36:07.034Z,98463.72
2022-10-09T09:38:33.699Z,98470.69
2022-10-09T09:41:00.379Z,98469.91
2022-10-09T09:43:27.217Z,98460.50
2022-10-09T09:45:56.252Z,98463.72
2022-10-09T09:48:39.257Z,98459.34
2022-10-09T09:51:29.322Z,98465.00
2022-10-09T09:54:15.360Z,98465.84
2022-10-09T09:59:38.196Z,98466.56
2022-10-09T10:02:12.515Z,98462.19
2022-10-09T10:04:52.641Z,98460.69
2022-10-09T10:07:33.842Z,98458.97
2022-10-09T10:10:14.890Z,98459.03
2022-10-09T10:12:47.345Z,98451.19
2022-10-09T10:15:26.687Z,98443.69
2022-10-09T10:18:06.438Z,98446.03
2022-10-09T10:20:43.097Z,98442.50
2022-10-09T10:24:10.978Z,98443.72
2022-10-09T10:26:55.670Z,98424.09
2022-10-09T10:29:47.642Z,98430.00
2022-10-09T10:32:40.447Z,98432.69
2022-10-09T10:35:25.562Z,98422.31
2022-10-09T10:38:26.794Z,98417.78
2022-10-09T10:41:03.186Z,98413.91
2022-10-09T10:43:37.990Z,98414.63
2022-10-09T10:46:28.548Z,98408.41
2022-10-09T10:48:56.632Z,98397.00
2022-10-09T10:51:58.773Z,98406.38
2022-10-09T10:54:58.618Z,98405.66
2022-10-09T10:57:52.746Z,98395.78
2022-10-09T11:00:19.441Z,98390.44
2022-10-09T11:03:29.675Z,98390.94
2022-10-09T11:06:06.683Z,98392.97
2022-10-09T11:09:25.417Z,98385.75
2022-10-09T11:12:19.271Z,98388.19
2022-10-09T11:15:37.855Z,98392.16
2022-10-09T11:18:56.570Z,98384.47
2022-10-09T11:21:59.646Z,98381.25
2022-10-09T11:24:49.152Z,98377.19
2022-10-09T11:27:54.817Z,98369.44
2022-10-09T11:30:27.672Z,98366.28
2022-10-09T11:33:26.635Z,98356.31
2022-10-09T11:36:03.665Z,98332.22
2022-10-09T11:38:58.553Z,98331.88
2022-10-09T11:41:27.454Z,98329.81
2022-10-09T11:44:33.315Z,98328.34
2022-10-09T11:47:26.413Z,98323.56
2022-10-09T11:50:33.565Z,98309.97
2022-10-09T11:53:09.095Z,98311.44
2022-10-09T11:55:36.448Z,98293.38
2022-10-09T11:58:20.297Z,98299.19
2022-10-09T12:00:50.732Z,98292.06
2022-10-09T12:03:43.407Z,98288.94
2022-10-09T12:06:17.670Z,98285.94
2022-10-09T12:08:56.643Z,98274.09
2022-10-09T12:11:24.271Z,98273.31
2022-10-09T12:13:53.695Z,98273.59
2022-10-09T12:16:41.913Z,98272.22
2022-10-09T12:19:44.709Z,98277.03
2022-10-09T12:22:21.739Z,98271.53
2022-10-09T12:24:50.646Z,98269.19
2022-10-09T12:27:30.605Z,98260.22
2022-10-09T12:30:25.335Z,98256.03
2022-10-09T12:33:04.814Z,98271.22
2022-10-09T12:35:37.442Z,98263.41
2022-10-09T12:38:25.671Z,98251.78
2022-10-09T12:40:54.870Z,98239.59
2022-10-09T12:43:23.617Z,98235.28
2022-10-09T12:45:52.975Z,98238.59
2022-10-09T12:48:28.422Z,98226.41
2022-10-09T12:50:55.849Z,98226.88
2022-10-09T12:53:27.538Z,98215.44
2022-10-09T12:56:00.872Z,98208.59
2022-10-09T12:58:33.264Z,98205.28
2022-10-09T13:01:01.466Z,98193.81
2022-10-09T13:03:40.054Z,98201.06
2022-10-09T13:06:17.569Z,98201.78
2022-10-09T13:08:45.521Z,98204.97
2022-10-09T13:11:31.562Z,98197.88
2022-10-09T13:13:58.607Z,98192.81
2022-10-09T13:16:25.799Z,98182.34
2022-10-09T13:19:01.387Z,98194.25
2022-10-09T13:21:34.287Z,98182.19
2022-10-09T13:24:13.235Z,98182.63
2022-10-09T13:26:42.548Z,98182.47
2022-10-09T13:29:09.411Z,98177.22
2022-10-09T13:31:37.077Z,98179.69
2022-10-09T13:34:14.041Z,98169.31
2022-10-09T13:36:41.044Z,98179.59
2022-10-09T13:39:13.480Z,98179.44
2022-10-09T13:41:40.393Z,98165.69
2022-10-09T13:44:06.960Z,98168.44
2022-10-09T13:46:33.795Z,98164.97
2022-10-09T13:49:00.421Z,98166.41
2022-10-09T13:51:26.979Z,98156.28
2022-10-09T13:53:53.810Z,98162.75
2022-10-09T13:56:20.438Z,98160.31
2022-10-09T13:58:47.107Z,98159.03
2022-10-09T14:01:13.833Z,98156.13
2022-10-09T14:03:40.683Z,98157.13
2022-10-09T14:06:07.595Z,98153.44
2022-10-09T14:08:34.275Z,98147.81
2022-10-09T14:11:01.470Z,98142.72
2022-10-09T14:13:28.797Z,98149.50
2022-10-09T14:15:55.890Z,98142.84
2022-10-09T14:18:22.463Z,98149.78
2022-10-09T14:20:49.614Z,98139.44
2022-10-09T14:23:16.437Z,98135.56
2022-10-09T14:25:42.973Z,98137.19
2022-10-09T14:28:09.663Z,98131.84
2022-10-09T14:30:40.351Z,98136.03
2022-10-09T14:33:06.967Z,98125.03
2022-10-09T14:35:33.781Z,98129.03
2022-10-09T14:38:00.312Z,98131.94
2022-10-09T14:40:26.968Z,98123.13
2022-10-09T14:42:53.677Z,98115.13
2022-10-09T14:45:20.252Z,98121.22
2022-10-09T14:47:47.048Z,98117.16
2022-10-09T14:50:13.642Z,98104.56
2022-10-09T14:52:40.224Z,98099.22
2022-10-09T14:55:07.393Z,98102.38
2022-10-09T14:57:35.608Z,98113.22
2022-10-09T15:00:04.680Z,98111.28
2022-10-09T15:02:31.320Z,98100.16
2022-10-09T15:04:58.004Z,98100.41
2022-10-09T15:07:27.927Z,98103.31
2022-10-09T15:09:55.007Z,98101.81
2022-10-09T15:12:21.665Z,98095.59
2022-10-09T15:14:48.247Z,98091.97
2022-10-09T15:17:14.825Z,98094.25
2022-10-09T15:19:41.425Z,98087.88
2022-10-09T15:22:08.023Z,98092.22
2022-10-09T15:24:34.817Z,98090.88
2022-10-09T15:27:01.615Z,98092.59
2022-10-09T15:29:28.175Z,98093.41
2022-10-09T15:31:54.805Z,98090.91
2022-10-09T15:34:21.484Z,98091.47
2022-10-09T15:36:48.253Z,98088.56
2022-10-09T15:39:15.457Z,98087.13
2022-10-09T15:41:43.288Z,98076.63
2022-10-09T15:44:18.865Z,98083.09
2022-10-09T15:46:47.181Z,98080.00
2022-10-09T15:49:14.229Z,98084.63
2022-10-09T15:51:41.045Z,98081.00
2022-10-09T15:54:07.771Z,98083.41
2022-10-09T15:56:39.467Z,98080.50
2022-10-09T15:59:06.895Z,98077.28
2022-10-09T16:01:33.584Z,98076.06
2022-10-09T16:04:00.160Z,98081.78
2022-10-09T16:06:26.752Z,98075.44
2022-10-09T16:08:58.464Z,98071.56
2022-10-09T16:11:26.537Z,98075.25
2022-10-09T16:13:54.494Z,98071.44
2022-10-09T16:16:23.671Z,98077.72
2022-10-09T16:18:54.145Z,98064.59
2022-10-09T16:21:25.767Z,98062.41
2022-10-09T16:23:58.184Z,98072.31
2022-10-09T16:26:30.582Z,98072.00
2022-10-09T16:28:59.761Z,98074.22
2022-10-09T16:31:30.278Z,98073.19
2022-10-09T16:33:58.098Z,98066.63
2022-10-09T16:36:24.719Z,98083.81
2022-10-09T16:38:51.517Z,98071.56
2022-10-09T16:41:19.730Z,98075.81
2022-10-09T16:43:48.274Z,98077.38
2022-10-09T16:46:20.435Z,98079.22
2022-10-09T16:48:48.173Z,98077.75
2022-10-09T16:51:18.285Z,98074.47
2022-10-09T16:53:48.116Z,98072.84
2022-10-09T16:56:17.470Z,98075.78
2022-10-09T16:58:44.234Z,98078.75
2022-10-09T17:01:11.495Z,98081.31
2022-10-09T17:03:41.082Z,98077.13
2022-10-09T17:06:10.301Z,98072.56
2022-10-09T17:08:36.987Z,98082.81
2022-10-09T17:11:06.834Z,98075.53
2022-10-09T17:13:33.471Z,98069.53
2022-10-09T17:16:00.297Z,98072.94
2022-10-09T17:18:26.935Z,98069.50
2022-10-09T17:20:53.456Z,98078.28
2022-10-09T17:23:20.085Z,98066.78
2022-10-09T17:25:46.684Z,98066.66
2022-10-09T17:28:13.319Z,98068.25
2022-10-09T17:30:40.730Z,98060.59
2022-10-09T17:33:07.509Z,98064.78
2022-10-09T17:35:39.272Z,98064.25
2022-10-09T17:38:05.950Z,98062.94
2022-10-09T17:40:36.762Z,98063.34
2022-10-09T17:43:03.497Z,98055.31
2022-10-09T17:45:30.209Z,98054.22
2022-10-09T17:47:56.969Z,98058.03
2022-10-09T17:50:23.675Z,98056.56
2022-10-09T17:52:50.611Z,98054.78
2022-10-09T17:55:17.426Z,98059.34
2022-10-09T17:57:44.133Z,98057.69
2022-10-09T18:00:11.862Z,98056.03
2022-10-09T18:02:38.565Z,98060.13
2022-10-09T18:05:05.716Z,98060.50
2022-10-09T18:07:32.521Z,98062.72
2022-10-09T18:09:59.182Z,98059.75
2022-10-09T18:12:25.889Z,98051.56
2022-10-09T18:14:52.486Z,98057.94
2022-10-09T18:17:19.585Z,98048.28
2022-10-09T18:19:46.360Z,98054.69
2022-10-09T18:22:12.962Z,98054.69
2022-10-09T18:24:39.562Z,98051.78
2022-10-09T18:27:06.176Z,98046.13
2022-10-09T18:29:33.117Z,98035.22
2022-10-09T18:31:59.672Z,98045.06
2022-10-09T18:34:26.389Z,98042.53
2022-10-09T18:36:53.083Z,98043.44
2022-10-09T18:39:21.519Z,98043.59
2022-10-09T18:41:48.537Z,98040.75
2022-10-09T18:44:19.563Z,98044.97
2022-10-09T18:46:59.969Z,98032.00
2022-10-09T18:49:31.823Z,98018.31
2022-10-09T18:52:02.645Z,98021.66
2022-10-09T18:54:30.525Z,98020.38
2022-10-09T18:56:57.741Z,98018.34
2022-10-09T18:59:24.575Z,98021.66
2022-10-09T19:01:51.217Z,98013.44
2022-10-09T19:04:19.034Z,98020.03
2022-10-09T19:06:46.151Z,98013.63
2022-10-09T19:09:13.244Z,98019.69
2022-10-09T19:11:40.324Z,98011.81
2022-10-09T19:14:07.017Z,98022.56
2022-10-09T19:16:34.850Z,98022.22
2022-10-09T19:19:01.785Z,98025.69
2022-10-09T19:21:31.631Z,98018.38
2022-10-09T19:24:03.477Z,98017.47
2022-10-09T19:26:30.267Z,98012.91
2022-10-09T19:28:56.957Z,98010.38
2022-10-09T19:31:23.540Z,98013.69
2022-10-09T19:33:50.123Z,98013.31
2022-10-09T19:36:16.955Z,98008.59
2022-10-09T19:38:43.802Z,98000.53
2022-10-09T19:41:13.314Z,97999.09
2022-10-09T19:43:40.104Z,97994.38
2022-10-09T19:46:09.773Z,97995.84
2022-10-09T19:48:37.330Z,97997.50
2022-10-09T19:51:22.123Z,97992.34
2022-10-09T19:53:49.925Z,97992.34
2022-10-09T19:56:19.472Z,97994.41
2022-10-09T19:58:47.870Z,97987.88
2022-10-09T20:01:17.626Z,97987.69
2022-10-09T20:03:44.966Z,97990.63
2022-10-09T20:06:12.494Z,97984.59
2022-10-09T20:08:40.585Z,97988.78
2022-10-09T20:11:07.940Z,97995.00
2022-10-09T20:13:36.612Z,97995.16
2022-10-09T20:16:06.037Z,97992.06
2022-10-09T20:18:33.210Z,97984.78
2022-10-09T20:20:59.884Z,97978.97
2022-10-09T20:23:26.651Z,97990.78
2022-10-09T20:26:05.733Z,97985.53
2022-10-09T20:28:33.653Z,97978.63
2022-10-09T20:31:06.418Z,97971.50
2022-10-09T20:33:34.543Z,97972.22
2022-10-09T20:36:01.585Z,97971.50
2022-10-09T20:38:28.553Z,97969.53
2022-10-09T20:41:01.297Z,97967.50
2022-10-09T20:43:27.797Z,97971.16
2022-10-09T20:45:54.318Z,97963.13
2022-10-09T20:48:20.906Z,97970.25
2022-10-09T20:50:47.667Z,97943.81
2022-10-09T20:53:14.315Z,97950.38
2022-10-09T20:55:40.874Z,97947.84
2022-10-09T20:58:07.502Z,97955.88
2022-10-09T21:00:34.094Z,97944.56
2022-10-09T21:03:00.898Z,97940.94
2022-10-09T21:05:27.671Z,97943.81
2022-10-09T21:07:54.225Z,97939.97
2022-10-09T21:10:20.794Z,97944.88
2022-10-09T21:12:47.498Z,97945.09
2022-10-09T21:15:14.428Z,97937.97
2022-10-09T21:17:41.164Z,97935.81
2022-10-09T21:20:08.222Z,97930.16
2022-10-09T21:22:34.829Z,97933.44
2022-10-09T21:25:01.394Z,97932.38
2022-10-09T21:27:28.173Z,97928.88
2022-10-09T21:29:54.949Z,97936.22
2022-10-09T21:32:21.510Z,97921.97
2022-10-09T21:34:48.133Z,97926.72
2022-10-09T21:37:22.495Z,97924.19
2022-10-09T21:39:49.391Z,97921.97
2022-10-09T21:42:16.160Z,97916.13
2022-10-09T21:44:42.776Z,97918.00
2022-10-09T21:47:18.730Z,97917.06
2022-10-09T21:49:45.480Z,97918.16
2022-10-09T21:52:12.278Z,97921.44
2022-10-09T21:54:38.856Z,97909.06
2022-10-09T21:57:05.457Z,97905.44
2022-10-09T21:59:32.046Z,97900.13
2022-10-09T22:01:58.807Z,97896.69
2022-10-09T22:04:25.573Z,97897.94
2022-10-09T22:06:52.350Z,97899.38
2022-10-09T22:09:19.023Z,97893.75
2022-10-09T22:11:45.596Z,97904.69
2022-10-09T22:14:12.344Z,97906.34
2022-10-09T22:16:39.200Z,97901.06
2022-10-09T22:19:05.983Z,97892.69
2022-10-09T22:21:32.802Z,97897.44
2022-10-09T22:24:00.515Z,97899.59
2022-10-09T22:26:27.220Z,97886.84
2022-10-09T22:28:53.980Z,97891.03
2022-10-09T22:31:26.294Z,97888.84
2022-10-09T22:33:55.323Z,97885.22
2022-10-09T22:36:24.124Z,97875.38
2022-10-09T22:38:54.392Z,97874.84
2022-10-09T22:41:22.086Z,97871.41
2022-10-09T22:43:51.632Z,97871.56
2022-10-09T22:46:23.807Z,97870.66
2022-10-09T22:48:50.801Z,97864.47
2022-10-09T22:51:18.964Z,97856.66
2022-10-09T22:53:46.897Z,97860.09
2022-10-09T22:56:19.524Z,97848.31
2022-10-09T22:58:47.057Z,97850.81
2022-10-09T23:01:17.341Z,97857.38
2022-10-09T23:03:44.279Z,97854.66
2022-10-09T23:06:13.882Z,97849.94
2022-10-09T23:08:42.641Z,97847.38
2022-10-09T23:11:10.564Z,97849.38
2022-10-09T23:13:37.329Z,97852.84
2022-10-09T23:16:05.836Z,97850.88
2022-10-09T23:18:32.784Z,97845.63
2022-10-09T23:21:03.398Z,97843.41
2022-10-09T23:23:31.314Z,97839.59
2022-10-09T23:25:57.830Z,97844.84
2022-10-09T23:28:27.418Z,97844.50
2022-10-09T23:31:01.015Z,97843.06
2022-10-09T23:33:27.736Z,97837.78
2022-10-09T23:35:54.361Z,97836.53
2022-10-09T23:38:20.970Z,97842.34
2022-10-09T23:41:04.896Z,97830.72
2022-10-09T23:43:33.801Z,97827.22
2022-10-09T23:46:02.087Z,97830.16
2022-10-09T23:48:29.101Z,97832.53
2022-10-09T23:50:56.766Z,97826.00
2022-10-09T23:53:25.967Z,97834.00
2022-10-09T23:55:53.826Z,97836.16
2022-10-09T23:58:21.289Z,97835.78
